Windsor Park, Pennsylvania
Current Conditions -  °F | °C
As of 4:53 AM on Sunday 21 Dec 2014 (Local Time) from KTHV Reporting Station
Overcast Overcast  
Wind Chill: 27°   Ceiling: 7500
Heat Index: 27°   Visibility: 8mi
Dew Point: 23°   Wind: 0mph
Humidity: 85%   Direction: NA
Pressure: 30.28"   Gusts: NA
Location:  39.9503°N, 76.7105°W
Report Text: KTHV 210953Z AUTO 00000KT 8SM SCT037 OVC075 M03/M05 A3028 RMK AO2 SLP264 T10281050
Loading
Personal Weather Stations






























Interactive Weather Map New forecast layout! Learn more

10-Day Weather Forecast

Advertisements
Track Severe Weather on mobile